Time;durP1;ratioP1;P1;durP2;ratioP2;P2;SDS_P1;SDS_P2;PMS_P1;PMS_P2;Temp;Humidity;BMP_temperature;BMP_pressure;BME280_temperature;BME280_humidity;BME280_pressure;Samples;Min_cycle;Max_cycle;Signal;HPM_P1;HPM_P2
2022/07/24 00:01:41;;;;;;;8.10;7.38;;;27.20;49.20;;;;;;5087869;28;20070;-60
2022/07/24 00:04:09;;;;;;;8.38;7.38;;;27.30;49.30;;;;;;5088145;28;20489;-59
2022/07/24 00:06:36;;;;;;;8.25;7.47;;;27.20;49.20;;;;;;5088238;28;20050;-60
2022/07/24 00:09:04;;;;;;;7.65;6.95;;;27.20;49.20;;;;;;5081872;28;20063;-60
2022/07/24 00:11:33;;;;;;;8.52;7.53;;;27.20;49.20;;;;;;5087080;28;20082;-59
2022/07/24 00:14:00;;;;;;;7.55;6.78;;;27.20;49.20;;;;;;5087681;28;20109;-60
2022/07/24 00:16:28;;;;;;;7.55;6.82;;;27.30;49.30;;;;;;5087669;28;20098;-59
2022/07/24 00:18:56;;;;;;;7.10;6.50;;;27.20;49.20;;;;;;5087618;28;20067;-60
2022/07/24 00:21:23;;;;;;;8.15;7.45;;;27.20;49.20;;;;;;5087895;28;20036;-60
2022/07/24 00:23:50;;;;;;;7.93;7.22;;;27.20;49.20;;;;;;5087507;28;20044;-60
2022/07/24 00:26:17;;;;;;;7.40;6.70;;;27.20;49.20;;;;;;5087597;28;20047;-59
2022/07/24 00:28:44;;;;;;;8.80;8.00;;;27.20;49.20;;;;;;5087305;28;20476;-59
2022/07/24 00:31:12;;;;;;;8.13;7.32;;;27.20;49.20;;;;;;5087430;28;20097;-59
2022/07/24 00:33:39;;;;;;;8.00;7.20;;;27.20;49.20;;;;;;5087299;28;20083;-60
2022/07/24 00:36:06;;;;;;;7.93;7.22;;;27.20;49.30;;;;;;5087214;28;20071;-60
2022/07/24 00:38:33;;;;;;;6.95;6.35;;;27.20;49.20;;;;;;5085463;28;20044;-60
2022/07/24 00:41:01;;;;;;;8.20;7.40;;;27.20;49.30;;;;;;5085170;28;20040;-60
2022/07/24 00:43:28;;;;;;;8.20;7.45;;;27.20;49.30;;;;;;5086097;28;20566;-59
2022/07/24 00:45:55;;;;;;;7.45;6.78;;;27.20;49.30;;;;;;5087646;28;20040;-59
2022/07/24 00:48:23;;;;;;;8.02;7.13;;;27.20;49.30;;;;;;5086958;28;20532;-59
2022/07/24 00:50:51;;;;;;;7.82;7.13;;;27.20;49.30;;;;;;5087097;28;20127;-60
2022/07/24 00:53:18;;;;;;;7.95;7.20;;;27.20;49.30;;;;;;5087015;28;20523;-59
2022/07/24 00:55:45;;;;;;;7.65;6.95;;;27.20;49.30;;;;;;5087254;28;20080;-59
2022/07/24 00:58:13;;;;;;;7.63;6.93;;;27.10;49.30;;;;;;5087261;28;20052;-60
2022/07/24 01:00:40;;;;;;;7.82;7.07;;;27.20;49.40;;;;;;5086749;28;20093;-60
2022/07/24 01:03:07;;;;;;;6.93;6.32;;;27.20;49.40;;;;;;5086992;28;20048;-60
2022/07/24 01:05:34;;;;;;;7.10;6.50;;;27.10;49.40;;;;;;5086956;28;20132;-59
2022/07/24 01:08:02;;;;;;;7.78;7.07;;;27.10;49.40;;;;;;5086572;28;20408;-59
2022/07/24 01:10:29;;;;;;;7.57;6.88;;;27.10;49.40;;;;;;5080828;28;20101;-60
2022/07/24 01:12:57;;;;;;;7.82;7.13;;;27.10;49.30;;;;;;5086102;28;20477;-60
2022/07/24 01:15:24;;;;;;;7.68;6.97;;;27.10;49.40;;;;;;5085296;28;20052;-59
2022/07/24 01:17:51;;;;;;;7.03;6.32;;;27.10;49.40;;;;;;5087040;28;20048;-59
2022/07/24 01:20:18;;;;;;;7.75;7.05;;;27.10;49.40;;;;;;5086588;28;20070;-59
2022/07/24 01:22:45;;;;;;;7.60;6.90;;;27.10;49.40;;;;;;5086492;28;20056;-59
2022/07/24 01:25:13;;;;;;;7.40;6.70;;;27.10;49.40;;;;;;5085219;28;20413;-59
2022/07/24 01:27:40;;;;;;;7.60;6.88;;;27.10;49.40;;;;;;5086691;28;20069;-59
2022/07/24 01:30:08;;;;;;;7.60;6.30;;;27.10;49.40;;;;;;5086839;28;20397;-59
2022/07/24 01:32:36;;;;;;;7.30;6.60;;;27.10;49.40;;;;;;5086476;28;20052;-59
2022/07/24 01:35:04;;;;;;;6.80;6.20;;;27.10;49.40;;;;;;5086318;28;20138;-59
2022/07/24 01:37:31;;;;;;;6.90;6.30;;;27.10;49.40;;;;;;5086261;28;20043;-59
2022/07/24 01:39:58;;;;;;;9.23;6.95;;;27.10;49.40;;;;;;5086308;28;20098;-59
2022/07/24 01:42:25;;;;;;;6.30;5.78;;;27.10;49.40;;;;;;5082232;28;20472;-59
2022/07/24 01:44:52;;;;;;;7.00;6.30;;;27.10;49.40;;;;;;5085436;28;20464;-59
2022/07/24 01:47:19;;;;;;;6.68;6.07;;;27.10;49.40;;;;;;5086612;28;20476;-59
2022/07/24 01:49:47;;;;;;;8.70;6.95;;;27.10;49.40;;;;;;5085865;28;20040;-59
2022/07/24 01:52:14;;;;;;;7.60;6.78;;;27.10;49.40;;;;;;5086914;28;20044;-59
2022/07/24 01:54:41;;;;;;;7.32;6.55;;;27.10;49.40;;;;;;5086154;28;20097;-59
2022/07/24 01:57:08;;;;;;;7.43;6.72;;;27.10;49.40;;;;;;5086796;28;20112;-60
2022/07/24 01:59:36;;;;;;;6.50;5.90;;;27.10;49.40;;;;;;5086683;28;20094;-60
2022/07/24 02:02:03;;;;;;;7.20;6.60;;;27.10;49.30;;;;;;5085746;28;20544;-59
2022/07/24 02:04:30;;;;;;;6.63;6.07;;;27.10;49.30;;;;;;5085985;28;20101;-59
2022/07/24 02:06:57;;;;;;;7.38;6.68;;;27.10;49.30;;;;;;5086356;28;20436;-60
2022/07/24 02:09:25;;;;;;;7.13;6.45;;;27.10;49.30;;;;;;5085837;28;20488;-60
2022/07/24 02:11:52;;;;;;;7.20;6.53;;;27.10;49.30;;;;;;5086757;28;20082;-59
2022/07/24 02:14:19;;;;;;;7.13;6.40;;;27.10;49.90;;;;;;5080807;28;20484;-60
2022/07/24 02:16:47;;;;;;;7.00;6.38;;;27.10;49.30;;;;;;5086635;28;20044;-59
2022/07/24 02:19:14;;;;;;;7.10;6.47;;;27.10;49.30;;;;;;5084977;28;20051;-60
2022/07/24 02:21:41;;;;;;;7.05;6.43;;;27.10;49.30;;;;;;5086493;28;20094;-60
2022/07/24 02:24:09;;;;;;;6.70;6.10;;;27.10;49.40;;;;;;5089645;28;20477;-60
2022/07/24 02:26:36;;;;;;;6.93;6.32;;;27.10;49.40;;;;;;5088577;28;20102;-59
2022/07/24 02:29:03;;;;;;;6.57;6.03;;;27.10;49.40;;;;;;5088852;28;20504;-59
2022/07/24 02:31:31;;;;;;;6.65;6.05;;;27.10;49.40;;;;;;5089683;28;20146;-59
2022/07/24 02:33:58;;;;;;;7.05;6.45;;;27.10;49.40;;;;;;5088072;28;20512;-60
2022/07/24 02:36:25;;;;;;;6.68;6.07;;;27.10;49.40;;;;;;5089507;28;20565;-60
2022/07/24 02:38:52;;;;;;;6.50;6.00;;;27.10;49.40;;;;;;5088160;28;20401;-60
2022/07/24 02:41:20;;;;;;;6.60;6.03;;;27.10;49.40;;;;;;5089873;28;20124;-59
2022/07/24 02:43:47;;;;;;;6.78;6.18;;;27.10;49.40;;;;;;5071061;28;20052;-59
2022/07/24 02:46:14;;;;;;;6.32;5.82;;;27.00;49.40;;;;;;5083832;28;20048;-60
2022/07/24 02:48:41;;;;;;;6.65;6.05;;;27.00;49.40;;;;;;5089360;28;20040;-59
2022/07/24 02:51:10;;;;;;;6.63;6.03;;;27.00;49.40;;;;;;5089104;28;20491;-59
2022/07/24 02:53:37;;;;;;;6.03;5.53;;;27.00;49.40;;;;;;5089692;28;20412;-59
2022/07/24 02:56:05;;;;;;;6.80;6.20;;;27.00;49.40;;;;;;5089231;28;20669;-59
2022/07/24 02:58:32;;;;;;;6.70;6.10;;;27.00;49.40;;;;;;5087896;28;20052;-59
2022/07/24 03:00:59;;;;;;;6.05;5.50;;;27.00;49.30;;;;;;5089422;28;20469;-59
2022/07/24 03:03:27;;;;;;;7.07;6.45;;;27.00;49.30;;;;;;5088672;28;20054;-59
2022/07/24 03:05:54;;;;;;;6.60;6.00;;;27.00;49.40;;;;;;5089477;28;20052;-59
2022/07/24 03:08:21;;;;;;;6.75;6.15;;;27.00;49.40;;;;;;5088907;28;20131;-60
2022/07/24 03:10:48;;;;;;;6.72;6.05;;;27.00;49.40;;;;;;5089285;28;20489;-59
2022/07/24 03:13:16;;;;;;;5.93;5.43;;;27.00;49.40;;;;;;5089187;28;20083;-59
2022/07/24 03:15:43;;;;;;;6.15;5.63;;;27.00;49.40;;;;;;5086896;28;20044;-60
2022/07/24 03:18:10;;;;;;;6.22;5.65;;;27.00;49.40;;;;;;5086229;28;20109;-59
2022/07/24 03:20:47;;;;;;;6.47;5.88;;;27.00;49.30;;;;;;5088919;28;20131;-60
2022/07/24 03:23:15;;;;;;;6.80;6.20;;;27.00;49.40;;;;;;5088766;28;20113;-59
2022/07/24 03:25:42;;;;;;;6.45;5.95;;;27.00;49.40;;;;;;5088953;28;20074;-60
2022/07/24 03:28:09;;;;;;;6.68;6.07;;;27.00;49.40;;;;;;5088290;28;20106;-59
2022/07/24 03:30:36;;;;;;;6.35;5.78;;;27.00;49.30;;;;;;5088174;28;20068;-60
2022/07/24 03:33:03;;;;;;;5.93;5.38;;;27.00;49.30;;;;;;5087373;28;20055;-59
2022/07/24 03:35:31;;;;;;;6.10;5.50;;;27.00;49.40;;;;;;5088771;28;20100;-59
2022/07/24 03:37:58;;;;;;;5.78;5.28;;;27.00;49.40;;;;;;5088585;28;20086;-60
2022/07/24 03:40:25;;;;;;;6.47;5.88;;;27.00;49.40;;;;;;5087849;28;20040;-59
2022/07/24 03:42:52;;;;;;;6.05;5.55;;;27.00;49.40;;;;;;5088833;28;20044;-60
2022/07/24 03:45:20;;;;;;;6.47;5.88;;;27.00;49.40;;;;;;5088053;28;20536;-60
2022/07/24 03:47:47;;;;;;;6.47;5.88;;;27.00;49.40;;;;;;5086331;28;20052;-60
2022/07/24 03:50:14;;;;;;;5.88;5.28;;;27.00;49.30;;;;;;5086076;28;20074;-60
2022/07/24 03:52:48;;;;;;;6.25;5.65;;;27.00;49.40;;;;;;5088425;28;20055;-60
2022/07/24 03:55:16;;;;;;;6.05;5.55;;;27.00;49.40;;;;;;5088585;28;20432;-60
2022/07/24 03:57:44;;;;;;;5.95;5.35;;;27.00;49.40;;;;;;5087801;28;20072;-60
2022/07/24 04:00:12;;;;;;;5.85;5.35;;;27.00;49.40;;;;;;5088384;28;20044;-60
2022/07/24 04:02:39;;;;;;;5.60;5.10;;;27.00;49.40;;;;;;5088192;28;20075;-60
2022/07/24 04:05:08;;;;;;;5.75;5.25;;;27.00;49.40;;;;;;5087811;28;20078;-59
2022/07/24 04:07:36;;;;;;;6.00;5.50;;;27.00;49.40;;;;;;5088387;28;20040;-60
2022/07/24 04:10:05;;;;;;;5.82;5.30;;;27.00;49.40;;;;;;5087795;28;20048;-59
2022/07/24 04:12:33;;;;;;;5.63;5.15;;;27.00;49.90;;;;;;5087942;28;20044;-60
2022/07/24 04:15:00;;;;;;;5.53;5.13;;;27.00;49.40;;;;;;5087190;28;20516;-60
2022/07/24 04:17:28;;;;;;;5.10;4.70;;;27.00;49.30;;;;;;5087804;28;20415;-59
2022/07/24 04:19:56;;;;;;;6.18;5.57;;;27.00;49.40;;;;;;5083223;28;20044;-59
2022/07/24 04:22:23;;;;;;;6.00;5.47;;;27.00;49.40;;;;;;5087734;28;20044;-59
2022/07/24 04:24:50;;;;;;;5.57;5.07;;;27.00;49.30;;;;;;5087941;28;20093;-59
2022/07/24 04:27:17;;;;;;;5.57;5.07;;;27.10;49.40;;;;;;5087553;28;20044;-59
2022/07/24 04:29:44;;;;;;;5.32;4.85;;;27.10;49.30;;;;;;5085610;28;20043;-59
2022/07/24 04:32:12;;;;;;;5.82;5.32;;;27.10;49.30;;;;;;5087238;28;20539;-59
2022/07/24 04:34:39;;;;;;;5.70;5.20;;;27.10;49.30;;;;;;5087374;28;20139;-59
2022/07/24 04:37:06;;;;;;;5.20;4.80;;;27.10;49.30;;;;;;5086171;28;20170;-59
2022/07/24 04:39:33;;;;;;;6.10;5.50;;;27.10;49.20;;;;;;5087247;28;20086;-59
2022/07/24 04:42:00;;;;;;;5.75;5.25;;;27.10;49.20;;;;;;5087292;28;20236;-59
2022/07/24 04:44:27;;;;;;;6.00;5.40;;;27.10;49.70;;;;;;5087264;28;20517;-59
2022/07/24 04:46:55;;;;;;;5.38;4.97;;;27.10;49.10;;;;;;5086631;28;20211;-59
2022/07/24 04:49:22;;;;;;;5.90;5.40;;;27.20;49.20;;;;;;5087566;28;20302;-59
2022/07/24 04:51:49;;;;;;;5.97;5.47;;;27.20;49.10;;;;;;5082335;28;20063;-59
2022/07/24 04:54:16;;;;;;;5.13;4.63;;;27.10;49.00;;;;;;5086974;28;20048;-59
2022/07/24 04:56:44;;;;;;;5.97;5.47;;;27.20;49.10;;;;;;5087127;28;20055;-59
2022/07/24 04:59:11;;;;;;;5.20;4.70;;;27.20;49.00;;;;;;5087065;28;20455;-59
2022/07/24 05:01:38;;;;;;;5.60;5.10;;;27.20;49.00;;;;;;5087409;28;20464;-59
2022/07/24 05:04:05;;;;;;;6.45;5.82;;;27.20;49.00;;;;;;5086709;28;20271;-59
2022/07/24 05:06:33;;;;;;;4.82;4.43;;;27.20;48.90;;;;;;5086718;28;20162;-59
2022/07/24 05:09:00;;;;;;;5.50;5.05;;;27.20;49.20;;;;;;5087166;28;20110;-60
2022/07/24 05:11:28;;;;;;;5.55;5.05;;;27.20;49.40;;;;;;5085525;28;20048;-59
2022/07/24 05:13:55;;;;;;;4.63;4.22;;;27.20;49.70;;;;;;5087405;28;20347;-59
2022/07/24 05:16:22;;;;;;;5.43;5.00;;;27.00;49.90;;;;;;5086032;28;20048;-59
2022/07/24 05:18:50;;;;;;;5.60;5.10;;;26.90;50.40;;;;;;5086611;28;20051;-59
2022/07/24 05:21:17;;;;;;;5.07;4.65;;;26.70;50.80;;;;;;5087055;28;20044;-59
2022/07/24 05:23:44;;;;;;;5.15;4.65;;;26.40;51.10;;;;;;5081897;28;20078;-59
2022/07/24 05:26:12;;;;;;;4.90;4.50;;;26.10;51.00;;;;;;5086371;28;20130;-59
2022/07/24 05:28:39;;;;;;;5.32;4.82;;;25.80;50.80;;;;;;5086715;28;20097;-59
2022/07/24 05:31:08;;;;;;;5.25;4.75;;;25.40;50.90;;;;;;5085440;28;20396;-59
2022/07/24 05:33:35;;;;;;;4.93;4.53;;;25.10;50.90;;;;;;5086745;28;20040;-59
2022/07/24 05:36:03;;;;;;;4.85;4.43;;;24.80;50.90;;;;;;5085933;28;20098;-58
2022/07/24 05:38:30;;;;;;;4.22;3.92;;;24.50;50.90;;;;;;5086924;28;20044;-59
2022/07/24 05:40:57;;;;;;;4.55;4.13;;;24.20;50.90;;;;;;5086403;28;20048;-59
2022/07/24 05:43:24;;;;;;;5.78;4.40;;;24.00;50.50;;;;;;5086524;28;20100;-61
2022/07/24 05:45:52;;;;;;;4.50;4.10;;;23.70;50.30;;;;;;5086891;28;20067;-63
2022/07/24 05:48:20;;;;;;;5.18;4.35;;;23.40;50.60;;;;;;5085399;28;20052;-61
2022/07/24 05:50:48;;;;;;;4.50;4.10;;;23.20;50.30;;;;;;5068428;28;20048;-58
2022/07/24 05:53:15;;;;;;;5.00;4.28;;;22.90;50.30;;;;;;5084015;28;20147;-59
2022/07/24 05:55:42;;;;;;;4.50;4.10;;;22.70;51.00;;;;;;5082953;28;20052;-58
2022/07/24 05:58:09;;;;;;;4.22;3.83;;;22.50;50.90;;;;;;5089366;28;20276;-58
2022/07/24 06:00:36;;;;;;;4.28;3.88;;;22.30;51.20;;;;;;5089167;28;20048;-59
2022/07/24 06:03:03;;;;;;;4.28;3.97;;;22.10;51.70;;;;;;5088265;28;20086;-59
2022/07/24 06:05:31;;;;;;;4.55;3.92;;;21.90;52.40;;;;;;5088903;28;20468;-58
2022/07/24 06:07:58;;;;;;;4.60;4.18;;;21.80;52.90;;;;;;5089311;28;20078;-59
2022/07/24 06:10:25;;;;;;;4.45;4.05;;;21.70;53.40;;;;;;5088948;28;20135;-60
2022/07/24 06:12:53;;;;;;;4.72;4.32;;;21.60;53.70;;;;;;5088969;28;20101;-58
2022/07/24 06:15:20;;;;;;;5.38;3.88;;;21.50;54.30;;;;;;5089306;28;20052;-59
2022/07/24 06:17:47;;;;;;;4.15;3.78;;;21.50;54.70;;;;;;5088412;28;20040;-59
2022/07/24 06:20:16;;;;;;;5.07;4.13;;;21.40;54.90;;;;;;5088938;28;20097;-59
2022/07/24 06:22:44;;;;;;;4.60;4.20;;;21.40;55.00;;;;;;5088609;28;20086;-58
2022/07/24 06:25:15;;;;;;;4.18;3.80;;;21.40;55.50;;;;;;5086319;28;20233;-59
2022/07/24 06:27:45;;;;;;;3.90;3.35;;;21.40;55.50;;;;;;5086357;28;20048;-59
2022/07/24 06:30:19;;;;;;;4.77;3.73;;;21.30;55.70;;;;;;5089128;28;20110;-58
2022/07/24 06:32:47;;;;;;;4.35;3.95;;;21.40;55.70;;;;;;5088569;28;20044;-59
2022/07/24 06:35:15;;;;;;;4.00;3.60;;;21.40;56.10;;;;;;5087029;28;20131;-59
2022/07/24 06:37:42;;;;;;;3.42;3.13;;;21.30;56.00;;;;;;5088587;28;20066;-59
2022/07/24 06:40:15;;;;;;;4.53;3.97;;;21.40;56.10;;;;;;5088778;28;20047;-59
2022/07/24 06:42:43;;;;;;;3.90;3.50;;;21.30;56.10;;;;;;5087134;28;20050;-59
2022/07/24 06:45:11;;;;;;;3.78;3.47;;;21.30;56.30;;;;;;5089003;28;20451;-59
2022/07/24 06:47:39;;;;;;;4.50;4.10;;;21.40;56.40;;;;;;5087072;28;20569;-59
2022/07/24 06:50:07;;;;;;;4.47;3.70;;;21.40;56.60;;;;;;5086000;28;20048;-61
2022/07/24 06:52:34;;;;;;;4.00;3.33;;;21.40;56.40;;;;;;5087028;28;20049;-59
2022/07/24 06:55:02;;;;;;;4.05;3.63;;;21.40;56.50;;;;;;5087055;28;20112;-59
2022/07/24 06:57:29;;;;;;;3.55;3.25;;;21.40;56.40;;;;;;5082406;28;20131;-61
2022/07/24 06:59:56;;;;;;;4.00;3.60;;;21.40;56.60;;;;;;5086823;28;20121;-59
2022/07/24 07:02:23;;;;;;;4.50;4.10;;;21.40;56.90;;;;;;5087229;28;20047;-59
2022/07/24 07:04:50;;;;;;;4.60;3.80;;;21.40;56.80;;;;;;5086577;28;20347;-59
2022/07/24 07:07:18;;;;;;;4.85;4.03;;;21.40;57.30;;;;;;5086165;28;20249;-59
2022/07/24 07:09:45;;;;;;;4.07;3.67;;;21.40;57.10;;;;;;5087033;28;20213;-59
2022/07/24 07:12:12;;;;;;;3.97;3.40;;;21.40;57.40;;;;;;5067819;28;20048;-60
2022/07/24 07:14:39;;;;;;;3.40;3.10;;;21.40;57.40;;;;;;5077546;28;20393;-59
2022/07/24 07:17:06;;;;;;;5.65;3.50;;;21.40;57.40;;;;;;5084272;28;20484;-61
2022/07/24 07:19:33;;;;;;;6.07;3.72;;;21.40;57.90;;;;;;5080493;28;20083;-60
2022/07/24 07:22:00;;;;;;;4.20;3.80;;;21.30;57.90;;;;;;5083828;28;20040;-59
2022/07/24 07:24:28;;;;;;;5.28;4.07;;;21.30;57.80;;;;;;5086078;28;20040;-59
2022/07/24 07:26:55;;;;;;;3.92;3.55;;;21.30;58.00;;;;;;5085150;28;20063;-59
2022/07/24 07:29:22;;;;;;;3.97;3.55;;;21.30;58.10;;;;;;5093747;28;20044;-59
2022/07/24 07:31:56;;;;;;;4.03;3.65;;;21.30;58.00;;;;;;5083462;28;20110;-59
2022/07/24 07:34:23;;;;;;;4.18;3.78;;;21.40;58.00;;;;;;5071336;28;20508;-59
2022/07/24 07:36:50;;;;;;;3.45;3.15;;;21.40;58.10;;;;;;5084290;28;20589;-59
2022/07/24 07:39:17;;;;;;;4.32;3.92;;;21.40;58.10;;;;;;5102036;28;20668;-59
2022/07/24 07:41:45;;;;;;;4.35;3.95;;;21.40;58.00;;;;;;5089587;28;20465;-59
2022/07/24 07:44:12;;;;;;;4.10;3.70;;;21.40;58.20;;;;;;5088840;28;21731;-59
2022/07/24 07:46:39;;;;;;;3.97;3.50;;;21.40;57.80;;;;;;5100545;28;20136;-59
2022/07/24 07:49:06;;;;;;;3.85;3.45;;;21.50;58.10;;;;;;5042143;28;1301411;-59
2022/07/24 07:51:35;;;;;;;4.57;4.18;;;21.50;57.90;;;;;;5082583;28;20040;-59
2022/07/24 07:54:06;;;;;;;5.35;4.43;;;21.50;58.30;;;;;;5084917;28;20058;-59
2022/07/24 07:56:33;;;;;;;4.43;4.03;;;21.60;58.30;;;;;;5077084;28;20226;-59
2022/07/24 07:59:01;;;;;;;9.20;4.00;;;21.60;58.60;;;;;;5083508;28;20044;-59
2022/07/24 08:01:28;;;;;;;4.45;4.00;;;21.60;58.40;;;;;;5077904;28;20121;-59
2022/07/24 08:03:55;;;;;;;4.15;3.72;;;21.60;58.40;;;;;;5085485;28;20133;-59
2022/07/24 08:06:22;;;;;;;4.43;3.78;;;21.70;58.40;;;;;;5086725;28;20047;-59
2022/07/24 08:08:51;;;;;;;4.10;3.70;;;21.70;58.70;;;;;;5081961;28;20052;-59
2022/07/24 08:11:19;;;;;;;4.22;3.80;;;21.70;58.30;;;;;;5086854;28;20083;-59
2022/07/24 08:13:46;;;;;;;5.00;4.50;;;21.80;58.30;;;;;;5086836;28;20105;-59
2022/07/24 08:16:13;;;;;;;5.45;4.38;;;21.80;58.10;;;;;;5086613;28;20101;-59
2022/07/24 08:18:41;;;;;;;5.85;4.10;;;21.80;58.00;;;;;;5086109;28;20136;-59
2022/07/24 08:21:08;;;;;;;4.22;3.85;;;21.80;57.90;;;;;;5085761;28;20052;-59
2022/07/24 08:23:35;;;;;;;4.55;4.07;;;21.80;58.00;;;;;;5084927;28;20699;-60
2022/07/24 08:26:02;;;;;;;4.55;4.05;;;21.80;58.00;;;;;;5086323;28;20101;-60
2022/07/24 08:28:29;;;;;;;4.63;4.15;;;21.80;58.30;;;;;;5086440;28;20094;-60
2022/07/24 08:30:56;;;;;;;4.72;4.20;;;21.80;58.10;;;;;;5086387;28;20119;-59
2022/07/24 08:33:24;;;;;;;5.35;4.85;;;21.80;58.10;;;;;;5083428;28;20123;-60
2022/07/24 08:35:51;;;;;;;4.82;4.32;;;21.90;58.50;;;;;;5086928;28;20086;-59
2022/07/24 08:38:18;;;;;;;5.13;4.47;;;21.90;58.30;;;;;;5087912;28;20116;-59
2022/07/24 08:40:46;;;;;;;4.28;3.88;;;21.90;58.40;;;;;;5087891;28;20079;-59
2022/07/24 08:43:13;;;;;;;6.07;4.25;;;21.90;58.00;;;;;;5087272;28;20044;-59
2022/07/24 08:45:43;;;;;;;6.85;4.60;;;22.00;57.80;;;;;;5085820;28;20048;-60
2022/07/24 08:48:11;;;;;;;;;;;22.00;57.90;;;;;;5087751;28;20242;-59
2022/07/24 08:50:41;;;;;;;4.97;4.18;;;22.00;57.60;;;;;;5086837;28;19927;-59
2022/07/24 08:53:09;;;;;;;5.28;4.60;;;22.00;57.80;;;;;;5087383;28;20079;-59
2022/07/24 08:55:36;;;;;;;5.53;4.45;;;22.00;57.60;;;;;;5087123;28;20055;-59
2022/07/24 08:58:04;;;;;;;7.57;4.53;;;22.00;57.80;;;;;;5087391;28;20043;-60
2022/07/24 09:00:32;;;;;;;6.15;4.80;;;22.00;57.50;;;;;;5086788;28;20071;-60
2022/07/24 09:03:00;;;;;;;6.07;5.10;;;22.00;57.70;;;;;;5084914;28;20044;-59
2022/07/24 09:05:27;;;;;;;5.63;4.72;;;22.00;57.80;;;;;;5084154;28;20044;-59
2022/07/24 09:08:12;;;;;;;5.03;4.53;;;22.10;58.00;;;;;;5086883;28;20063;-59
2022/07/24 09:10:39;;;;;;;4.60;4.20;;;22.10;58.00;;;;;;5087497;28;20424;-59
2022/07/24 09:13:16;;;;;;;4.68;4.28;;;22.10;58.00;;;;;;5086816;28;20047;-59
2022/07/24 09:15:48;;;;;;;5.78;5.10;;;22.10;58.40;;;;;;5086666;28;20504;-59
2022/07/24 09:18:29;;;;;;;5.60;4.50;;;22.20;58.20;;;;;;5086921;28;20109;-59
2022/07/24 09:21:10;;;;;;;5.38;4.88;;;22.20;58.00;;;;;;5086797;28;20446;-59
2022/07/24 09:23:39;;;;;;;5.95;5.00;;;22.30;58.20;;;;;;5086924;28;20071;-59
2022/07/24 09:26:06;;;;;;;6.95;5.20;;;22.30;58.20;;;;;;5086790;28;20500;-59
2022/07/24 09:28:54;;;;;;;6.50;5.10;;;22.20;58.00;;;;;;5085750;28;20409;-59
2022/07/24 09:31:22;;;;;;;5.35;4.80;;;22.30;58.00;;;;;;5086331;28;20056;-60
2022/07/24 09:33:50;;;;;;;8.68;5.03;;;22.30;58.00;;;;;;5086245;28;20583;-59
2022/07/24 09:36:19;;;;;;;5.13;4.63;;;22.30;57.80;;;;;;5081562;28;20040;-60
2022/07/24 09:38:49;;;;;;;5.90;4.03;;;22.30;57.90;;;;;;5086162;28;20225;-59
2022/07/24 09:41:21;;;;;;;5.95;5.38;;;22.30;57.90;;;;;;5085636;28;20494;-60
2022/07/24 09:43:58;;;;;;;5.95;5.35;;;22.30;57.80;;;;;;5084992;28;20097;-59
2022/07/24 09:46:26;;;;;;;6.72;5.15;;;22.30;57.70;;;;;;5085701;28;20048;-59
2022/07/24 09:48:57;;;;;;;5.82;5.22;;;22.20;58.00;;;;;;5085331;28;20040;-59
2022/07/24 09:51:26;;;;;;;;;;;22.20;57.90;;;;;;5085623;28;20480;-59
2022/07/24 09:53:56;;;;;;;5.90;5.30;;;22.20;57.60;;;;;;5085673;28;19967;-59
2022/07/24 09:56:24;;;;;;;5.85;5.18;;;22.10;58.50;;;;;;5083809;28;20109;-59
2022/07/24 09:58:54;;;;;;;6.88;5.13;;;22.10;57.90;;;;;;5085307;28;20135;-60
2022/07/24 10:01:25;;;;;;;6.18;5.40;;;22.20;57.90;;;;;;5085167;28;20056;-60
2022/07/24 10:03:54;;;;;;;6.18;5.03;;;22.10;58.00;;;;;;5084789;28;20040;-59
2022/07/24 10:06:25;;;;;;;6.78;5.45;;;22.10;57.40;;;;;;5080874;28;20131;-59
2022/07/24 10:08:55;;;;;;;6.35;5.55;;;22.10;57.00;;;;;;5084977;28;20139;-59
2022/07/24 10:11:23;;;;;;;6.90;5.80;;;22.00;56.90;;;;;;5085216;28;20041;-59
2022/07/24 10:13:51;;;;;;;6.55;5.80;;;21.90;56.90;;;;;;5084672;28;20121;-59
2022/07/24 10:16:30;;;;;;;5.95;5.35;;;21.90;57.00;;;;;;5084868;28;20073;-59
2022/07/24 10:19:01;;;;;;;7.13;5.75;;;21.80;56.40;;;;;;5084803;28;20048;-59
2022/07/24 10:21:37;;;;;;;8.07;5.72;;;21.70;57.10;;;;;;5084259;28;20044;-59
2022/07/24 10:24:22;;;;;;;6.93;5.65;;;21.70;56.70;;;;;;5085267;28;20079;-59
2022/07/24 10:26:51;;;;;;;6.13;5.50;;;21.70;57.10;;;;;;5084195;28;20055;-61
2022/07/24 10:29:22;;;;;;;5.95;5.35;;;21.70;57.90;;;;;;5083637;28;20101;-59
2022/07/24 10:31:55;;;;;;;7.07;5.80;;;21.60;57.50;;;;;;5084941;28;20193;-59
2022/07/24 10:34:54;;;;;;;6.63;5.93;;;21.60;57.30;;;;;;5083991;28;20094;-59
2022/07/24 10:37:47;;;;;;;6.63;5.35;;;21.60;56.80;;;;;;5083246;28;20101;-59
2022/07/24 10:40:43;;;;;;;6.75;5.88;;;21.60;57.00;;;;;;5084907;28;20079;-59
2022/07/24 10:43:13;;;;;;;6.95;5.68;;;21.60;56.80;;;;;;5083571;28;20101;-59
2022/07/24 10:45:44;;;;;;;6.55;5.85;;;21.50;56.80;;;;;;5097822;28;20075;-59
2022/07/24 10:48:26;;;;;;;7.70;6.07;;;21.50;56.70;;;;;;5107529;28;20130;-59
2022/07/24 10:51:06;;;;;;;6.18;5.57;;;21.50;56.10;;;;;;5106922;28;20044;-59
2022/07/24 10:53:46;;;;;;;6.20;5.60;;;21.40;55.90;;;;;;5091267;28;20493;-59
2022/07/24 10:56:48;;;;;;;6.03;5.18;;;21.30;56.10;;;;;;5108732;27;20516;-59
2022/07/24 10:59:41;;;;;;;7.57;6.28;;;21.30;56.00;;;;;;5108770;28;20052;-59
2022/07/24 11:02:29;;;;;;;7.97;6.43;;;21.20;56.30;;;;;;5108369;28;20176;-59
2022/07/24 11:05:29;;;;;;;12.43;6.15;;;21.20;56.00;;;;;;5108717;27;20465;-59
2022/07/24 11:08:30;;;;;;;7.85;6.18;;;21.10;56.60;;;;;;5108291;28;20287;-59
2022/07/24 11:11:05;;;;;;;6.22;5.60;;;21.20;56.60;;;;;;5103673;28;20108;-60
2022/07/24 11:13:41;;;;;;;8.02;6.28;;;21.10;56.70;;;;;;5108262;27;20212;-59
2022/07/24 11:16:21;;;;;;;7.43;6.13;;;21.10;56.70;;;;;;5107531;28;20378;-59
2022/07/24 11:19:27;;;;;;;7.50;6.13;;;21.10;56.70;;;;;;5108759;28;20067;-59
2022/07/24 11:22:03;;;;;;;7.60;6.13;;;21.10;56.70;;;;;;5108297;28;20567;-59
2022/07/24 11:24:30;;;;;;;7.68;6.22;;;21.10;56.80;;;;;;5108591;28;20443;-59
2022/07/24 11:27:07;;;;;;;8.88;6.82;;;21.20;56.70;;;;;;5109180;28;20044;-59
2022/07/24 11:29:39;;;;;;;7.15;5.85;;;21.20;57.00;;;;;;5109356;27;20093;-59
2022/07/24 11:32:10;;;;;;;7.78;6.22;;;21.20;56.90;;;;;;5109047;28;20087;-59
2022/07/24 11:34:51;;;;;;;8.77;6.43;;;21.20;57.00;;;;;;5109030;28;20408;-59
2022/07/24 11:37:19;;;;;;;7.28;6.03;;;21.30;56.80;;;;;;5109368;28;20047;-59
2022/07/24 11:39:49;;;;;;;6.95;5.72;;;21.30;56.70;;;;;;5108706;28;20120;-59
2022/07/24 11:42:16;;;;;;;6.63;5.93;;;21.30;56.90;;;;;;5104512;27;20047;-61
2022/07/24 11:44:47;;;;;;;6.68;5.97;;;21.30;56.60;;;;;;5109110;27;20051;-62
2022/07/24 11:47:15;;;;;;;;;;;21.30;56.40;;;;;;5107935;28;20052;-61
2022/07/24 11:49:55;;;;;;;7.53;6.53;;;21.20;56.60;;;;;;5108906;28;19972;-59
2022/07/24 11:52:25;;;;;;;9.30;6.20;;;21.20;56.90;;;;;;5107460;28;20044;-59
2022/07/24 11:54:55;;;;;;;6.70;6.05;;;21.20;56.90;;;;;;5106809;28;20112;-59
2022/07/24 11:57:25;;;;;;;7.70;6.18;;;21.20;57.00;;;;;;5106991;28;20097;-59
2022/07/24 12:00:15;;;;;;;5.97;5.35;;;21.30;57.00;;;;;;5108998;28;20403;-59
2022/07/24 12:02:45;;;;;;;6.82;5.65;;;21.30;57.40;;;;;;5108852;28;20047;-59
2022/07/24 12:05:13;;;;;;;6.40;5.53;;;21.30;56.70;;;;;;5107817;28;20161;-59
2022/07/24 12:07:40;;;;;;;6.45;5.75;;;21.30;56.60;;;;;;5109104;28;20683;-59
2022/07/24 12:10:08;;;;;;;6.78;6.00;;;21.40;56.80;;;;;;5107754;28;20334;-59
2022/07/24 12:12:37;;;;;;;7.05;6.35;;;21.40;56.60;;;;;;5104296;28;20385;-59
2022/07/24 12:15:11;;;;;;;6.00;5.38;;;21.30;56.40;;;;;;5108124;28;20416;-60
2022/07/24 12:18:02;;;;;;;6.35;5.75;;;21.30;56.50;;;;;;5108434;28;20054;-59
2022/07/24 12:20:38;;;;;;;6.95;5.43;;;21.30;56.70;;;;;;5108298;28;20096;-60
2022/07/24 12:23:08;;;;;;;6.47;5.68;;;21.30;56.80;;;;;;5106502;28;20224;-59
2022/07/24 12:25:36;;;;;;;6.72;6.03;;;21.30;56.80;;;;;;5108435;28;20499;-59
2022/07/24 12:28:08;;;;;;;8.23;5.97;;;21.40;56.80;;;;;;5107883;28;20120;-59
2022/07/24 12:30:38;;;;;;;8.10;5.60;;;21.40;56.60;;;;;;5108017;28;20047;-60
2022/07/24 12:33:08;;;;;;;7.00;5.57;;;21.40;56.50;;;;;;5108300;28;20043;-60
2022/07/24 12:35:56;;;;;;;6.15;5.55;;;21.40;56.40;;;;;;5107798;28;20040;-59
2022/07/24 12:38:30;;;;;;;7.85;5.97;;;21.40;56.40;;;;;;5106566;28;20580;-60
2022/07/24 12:41:09;;;;;;;6.57;5.53;;;21.40;56.50;;;;;;5107783;27;20083;-59
2022/07/24 12:43:53;;;;;;;6.57;5.85;;;21.40;56.60;;;;;;5090447;28;20055;-59
2022/07/24 12:46:23;;;;;;;6.38;5.72;;;21.50;56.70;;;;;;5086540;28;20122;-59
2022/07/24 12:49:02;;;;;;;6.78;6.07;;;21.50;56.70;;;;;;5086355;28;20052;-59
2022/07/24 12:51:53;;;;;;;6.80;5.70;;;21.50;56.40;;;;;;5086223;28;20122;-59
2022/07/24 12:54:31;;;;;;;6.10;5.45;;;21.50;56.20;;;;;;5084390;28;20074;-59
2022/07/24 12:57:08;;;;;;;6.32;5.72;;;21.50;56.60;;;;;;5086248;28;20105;-59
2022/07/24 12:59:45;;;;;;;8.00;6.03;;;21.50;56.50;;;;;;5085269;28;20101;-59
2022/07/24 13:02:16;;;;;;;;;;;21.50;56.40;;;;;;5085506;28;20248;-59